createdAt,value
2022-12-18T00:00:48.126Z,63.88
2022-12-18T00:01:48.175Z,64.71
2022-12-18T00:02:49.054Z,56.70
2022-12-18T00:03:48.198Z,62.66
2022-12-18T00:04:48.106Z,66.56
2022-12-18T00:05:47.988Z,60.83
2022-12-18T00:06:49.016Z,52.85
2022-12-18T00:07:48.092Z,68.55
2022-12-18T00:08:47.964Z,63.60
2022-12-18T00:09:47.931Z,64.40
2022-12-18T00:10:48.696Z,65.52
2022-12-18T00:11:48.960Z,58.11
2022-12-18T00:12:48.017Z,56.26
2022-12-18T00:13:47.948Z,53.54
2022-12-18T00:14:47.975Z,64.13
2022-12-18T00:15:47.895Z,62.69
2022-12-18T00:16:47.917Z,62.85
2022-12-18T00:17:47.883Z,62.12
2022-12-18T00:18:47.886Z,63.96
2022-12-18T00:19:47.881Z,61.34
2022-12-18T00:20:47.883Z,61.37
2022-12-18T00:21:47.863Z,67.13
2022-12-18T00:22:47.870Z,64.11
2022-12-18T00:23:48.030Z,50.88
2022-12-18T00:24:47.851Z,58.23
2022-12-18T00:25:47.872Z,61.65
2022-12-18T00:26:47.848Z,61.73
2022-12-18T00:27:47.781Z,64.81
2022-12-18T00:28:47.794Z,57.28
2022-12-18T00:29:47.801Z,60.88
2022-12-18T00:30:47.799Z,60.84
2022-12-18T00:31:47.837Z,61.72
2022-12-18T00:32:47.813Z,61.86
2022-12-18T00:33:50.030Z,59.29
2022-12-18T00:34:48.821Z,63.37
2022-12-18T00:35:47.801Z,63.86
2022-12-18T00:36:47.696Z,66.69
2022-12-18T00:37:47.776Z,63.93
2022-12-18T00:38:47.705Z,59.98
2022-12-18T00:39:47.662Z,66.19
2022-12-18T00:40:48.360Z,50.05
2022-12-18T00:41:47.817Z,60.01
2022-12-18T00:42:47.662Z,63.03
2022-12-18T00:43:47.817Z,64.91
2022-12-18T00:44:47.606Z,58.81
2022-12-18T00:45:47.667Z,62.88
2022-12-18T00:46:47.749Z,61.03
2022-12-18T00:47:47.677Z,60.74
2022-12-18T00:48:47.643Z,63.63
2022-12-18T00:49:47.595Z,61.05
2022-12-18T00:50:47.560Z,64.67
2022-12-18T00:51:47.749Z,65.44
2022-12-18T00:52:47.585Z,66.01
2022-12-18T00:53:47.564Z,51.90
2022-12-18T00:54:47.559Z,60.75
2022-12-18T00:55:47.543Z,58.03
2022-12-18T00:56:49.629Z,59.89
2022-12-18T00:57:48.558Z,60.44
2022-12-18T00:58:47.593Z,55.77
2022-12-18T00:59:47.647Z,61.24
2022-12-18T01:00:47.580Z,60.50
2022-12-18T01:01:47.862Z,59.40
2022-12-18T01:02:47.637Z,58.17
2022-12-18T01:03:47.490Z,64.20
2022-12-18T01:04:47.551Z,64.70
2022-12-18T01:05:47.518Z,52.48
2022-12-18T01:06:47.451Z,51.38
2022-12-18T01:07:47.418Z,63.85
2022-12-18T01:08:47.430Z,57.12
2022-12-18T01:09:47.507Z,65.08
2022-12-18T01:10:47.426Z,58.87
2022-12-18T01:11:47.357Z,65.55
2022-12-18T01:12:47.457Z,65.19
2022-12-18T01:13:47.399Z,62.00
2022-12-18T01:14:47.443Z,63.85
2022-12-18T01:15:47.344Z,60.06
2022-12-18T01:16:47.440Z,64.80
2022-12-18T01:17:47.316Z,62.25
2022-12-18T01:18:47.529Z,65.54
2022-12-18T01:19:47.408Z,57.77
2022-12-18T01:20:47.319Z,58.67
2022-12-18T01:21:47.463Z,45.35
2022-12-18T01:22:47.287Z,61.39
2022-12-18T01:23:47.328Z,46.90
2022-12-18T01:24:47.299Z,56.93
2022-12-18T01:25:47.252Z,57.97
2022-12-18T01:26:47.220Z,53.40
2022-12-18T01:27:47.313Z,54.59
2022-12-18T01:28:47.204Z,52.55
2022-12-18T01:29:47.233Z,61.84
2022-12-18T01:30:47.316Z,59.11
2022-12-18T01:31:47.314Z,57.26
2022-12-18T01:32:47.244Z,58.94
2022-12-18T01:33:47.237Z,55.73
2022-12-18T01:34:47.165Z,59.96
2022-12-18T01:35:47.181Z,57.86
2022-12-18T01:36:47.165Z,60.76
2022-12-18T01:37:47.169Z,57.41
2022-12-18T01:38:47.113Z,65.53
2022-12-18T01:39:47.229Z,58.97
2022-12-18T01:40:47.114Z,56.34
2022-12-18T01:41:47.721Z,47.99
2022-12-18T01:42:47.274Z,57.10
2022-12-18T01:43:47.084Z,60.46
2022-12-18T01:44:47.073Z,61.68
2022-12-18T01:45:47.089Z,58.81
2022-12-18T01:46:47.061Z,56.92
2022-12-18T01:47:47.072Z,54.90
2022-12-18T01:48:47.053Z,53.64
2022-12-18T01:49:47.110Z,63.17
2022-12-18T01:50:47.023Z,54.53
2022-12-18T01:51:47.066Z,52.34
2022-12-18T01:52:46.991Z,54.81
2022-12-18T01:53:46.982Z,63.30
2022-12-18T01:54:46.971Z,53.88
2022-12-18T01:55:46.983Z,49.98
2022-12-18T01:56:46.929Z,57.68
2022-12-18T01:57:47.073Z,61.70
2022-12-18T01:58:46.953Z,57.74
2022-12-18T01:59:46.937Z,60.15
2022-12-18T02:00:47.034Z,61.22
2022-12-18T02:01:47.191Z,59.26
2022-12-18T02:02:46.968Z,56.34
2022-12-18T02:03:47.124Z,55.05
2022-12-18T02:04:49.577Z,55.85
2022-12-18T02:05:47.912Z,63.33
2022-12-18T02:06:46.852Z,58.93
2022-12-18T02:07:46.844Z,52.67
2022-12-18T02:08:46.909Z,48.53
2022-12-18T02:09:46.985Z,53.16
2022-12-18T02:10:46.853Z,52.61
2022-12-18T02:11:46.861Z,52.84
2022-12-18T02:12:46.912Z,44.69
2022-12-18T02:13:46.802Z,52.25
2022-12-18T02:14:46.835Z,53.44
2022-12-18T02:15:47.411Z,52.14
2022-12-18T02:16:46.902Z,55.80
2022-12-18T02:17:46.822Z,55.48
2022-12-18T02:18:46.784Z,47.24
2022-12-18T02:19:46.723Z,56.35
2022-12-18T02:20:46.786Z,44.37
2022-12-18T02:21:46.823Z,55.81
2022-12-18T02:22:46.747Z,49.40
2022-12-18T02:23:46.838Z,59.93
2022-12-18T02:24:46.702Z,44.71
2022-12-18T02:25:46.687Z,50.20
2022-12-18T02:26:46.674Z,56.68
2022-12-18T02:27:46.721Z,48.81
2022-12-18T02:28:46.804Z,57.31
2022-12-18T02:29:46.716Z,60.45
2022-12-18T02:30:46.689Z,53.84
2022-12-18T02:31:46.715Z,52.14
2022-12-18T02:32:46.627Z,64.57
2022-12-18T02:33:46.764Z,58.36
2022-12-18T02:34:46.599Z,47.93
2022-12-18T02:35:46.643Z,53.31
2022-12-18T02:36:47.411Z,51.84
2022-12-18T02:37:46.566Z,56.55
2022-12-18T02:38:46.540Z,48.71
2022-12-18T02:39:47.555Z,61.17
2022-12-18T02:40:46.580Z,56.21
2022-12-18T02:41:46.527Z,59.53
2022-12-18T02:42:46.537Z,53.73
2022-12-18T02:43:46.622Z,54.95
2022-12-18T02:44:46.601Z,52.18
2022-12-18T02:45:46.815Z,59.20
2022-12-18T02:46:46.548Z,58.72
2022-12-18T02:47:46.477Z,53.69
2022-12-18T02:48:46.516Z,59.50
2022-12-18T02:49:46.439Z,51.40
2022-12-18T02:50:46.531Z,46.43
2022-12-18T02:51:46.592Z,49.65
2022-12-18T02:52:46.408Z,63.47
2022-12-18T02:53:46.455Z,50.37
2022-12-18T02:54:46.464Z,60.07
2022-12-18T02:55:46.500Z,46.05
2022-12-18T02:56:46.401Z,59.59
2022-12-18T02:57:46.374Z,48.55
2022-12-18T02:58:46.479Z,57.81
2022-12-18T02:59:47.196Z,57.12
2022-12-18T03:00:46.445Z,55.83
2022-12-18T03:01:47.462Z,58.83
2022-12-18T03:02:46.539Z,56.54
2022-12-18T03:03:46.328Z,53.47
2022-12-18T03:04:46.304Z,52.04
2022-12-18T03:05:46.311Z,47.13
2022-12-18T03:06:46.277Z,60.81
2022-12-18T03:07:46.294Z,47.44
2022-12-18T03:08:46.304Z,44.67
2022-12-18T03:09:46.256Z,62.00
2022-12-18T03:10:46.285Z,47.90
2022-12-18T03:11:46.241Z,59.50
2022-12-18T03:12:46.248Z,61.03
2022-12-18T03:13:46.374Z,49.78
2022-12-18T03:14:46.205Z,49.25
2022-12-18T03:15:46.213Z,54.01
2022-12-18T03:16:46.428Z,50.71
2022-12-18T03:17:46.189Z,52.09
2022-12-18T03:18:46.192Z,55.38
2022-12-18T03:19:46.238Z,56.32
2022-12-18T03:20:46.154Z,54.81
2022-12-18T03:21:46.151Z,56.36
2022-12-18T03:22:46.840Z,50.36
2022-12-18T03:23:46.112Z,62.09
2022-12-18T03:24:46.148Z,65.01
2022-12-18T03:25:47.134Z,61.24
2022-12-18T03:26:46.076Z,61.34
2022-12-18T03:27:46.155Z,55.66
2022-12-18T03:28:46.064Z,61.29
2022-12-18T03:29:46.093Z,45.85
2022-12-18T03:30:46.142Z,46.40
2022-12-18T03:31:46.144Z,54.65
2022-12-18T03:32:46.171Z,57.67
2022-12-18T03:33:46.127Z,52.45
2022-12-18T03:34:46.059Z,57.19
2022-12-18T03:35:46.083Z,53.80
2022-12-18T03:36:46.068Z,65.13
2022-12-18T03:37:46.174Z,55.13
2022-12-18T03:38:45.986Z,62.53
2022-12-18T03:39:45.995Z,62.14
2022-12-18T03:40:46.017Z,60.76
2022-12-18T03:41:46.026Z,56.85
2022-12-18T03:42:46.022Z,53.34
2022-12-18T03:43:45.967Z,50.08
2022-12-18T03:44:46.040Z,45.53
2022-12-18T03:45:45.958Z,53.35
2022-12-18T03:46:45.934Z,50.13
2022-12-18T03:47:46.098Z,61.22
2022-12-18T03:48:46.240Z,53.63
2022-12-18T03:49:45.911Z,62.22
2022-12-18T03:50:47.167Z,56.93
2022-12-18T03:51:45.894Z,48.87
2022-12-18T03:52:45.938Z,58.66
2022-12-18T03:53:45.870Z,60.20
2022-12-18T03:54:45.851Z,46.50
2022-12-18T03:55:45.838Z,58.07
2022-12-18T03:56:45.859Z,51.25
2022-12-18T03:57:45.843Z,57.44
2022-12-18T03:58:45.855Z,67.46
2022-12-18T03:59:45.807Z,59.15
2022-12-18T04:00:45.795Z,54.33
2022-12-18T04:01:45.909Z,66.05
2022-12-18T04:02:45.973Z,63.50
2022-12-18T04:03:46.035Z,57.41
2022-12-18T04:04:45.825Z,54.33
2022-12-18T04:05:45.739Z,56.91
2022-12-18T04:06:45.816Z,60.04
2022-12-18T04:07:45.716Z,52.33
2022-12-18T04:08:45.775Z,60.34
2022-12-18T04:09:45.720Z,51.83
2022-12-18T04:10:45.683Z,67.58
2022-12-18T04:11:45.725Z,62.82
2022-12-18T04:12:45.683Z,58.62
2022-12-18T04:13:45.696Z,62.74
2022-12-18T04:14:45.680Z,60.59
2022-12-18T04:15:45.665Z,62.24
2022-12-18T04:16:45.664Z,64.21
2022-12-18T04:17:45.700Z,52.95
2022-12-18T04:18:45.641Z,61.95
2022-12-18T04:19:45.716Z,52.17
2022-12-18T04:20:45.676Z,57.17
2022-12-18T04:21:45.592Z,65.35
2022-12-18T04:22:45.630Z,66.82
2022-12-18T04:23:45.596Z,54.27
2022-12-18T04:24:45.605Z,62.45
2022-12-18T04:25:45.597Z,57.47
2022-12-18T04:26:45.552Z,62.00
2022-12-18T04:27:45.608Z,58.85
2022-12-18T04:28:45.584Z,60.15
2022-12-18T04:29:45.589Z,63.60
2022-12-18T04:30:45.569Z,58.87
2022-12-18T04:31:45.595Z,55.89
2022-12-18T04:32:50.528Z,50.71
2022-12-18T04:33:47.484Z,56.45
2022-12-18T04:34:46.501Z,51.91
2022-12-18T04:35:45.483Z,62.94
2022-12-18T04:36:45.631Z,61.12
2022-12-18T04:37:45.431Z,66.60
2022-12-18T04:38:45.437Z,55.97
2022-12-18T04:39:45.444Z,60.21
2022-12-18T04:40:45.453Z,49.42
2022-12-18T04:41:45.417Z,56.52
2022-12-18T04:42:45.493Z,62.51
2022-12-18T04:43:45.400Z,59.89
2022-12-18T04:44:45.401Z,60.33
2022-12-18T04:45:45.395Z,60.06
2022-12-18T04:46:45.491Z,55.23
2022-12-18T04:47:45.508Z,62.01
2022-12-18T04:48:45.345Z,64.83
2022-12-18T04:49:45.337Z,63.93
2022-12-18T04:50:45.382Z,64.40
2022-12-18T04:51:45.325Z,54.71
2022-12-18T04:52:45.456Z,64.64
2022-12-18T04:53:45.284Z,56.98
2022-12-18T04:54:45.300Z,61.22
2022-12-18T04:55:45.293Z,48.66
2022-12-18T04:56:45.253Z,63.95
2022-12-18T04:57:45.226Z,57.77
2022-12-18T04:58:45.215Z,57.35
2022-12-18T04:59:45.194Z,54.38
2022-12-18T05:00:45.219Z,51.04
2022-12-18T05:01:45.291Z,62.32
2022-12-18T05:02:45.394Z,61.25
2022-12-18T05:03:45.705Z,57.50
2022-12-18T05:04:45.154Z,64.44
2022-12-18T05:05:45.212Z,59.53
2022-12-18T05:06:45.142Z,62.08
2022-12-18T05:07:45.102Z,59.97
2022-12-18T05:08:45.192Z,66.28
2022-12-18T05:09:45.106Z,56.86
2022-12-18T05:10:45.070Z,62.89
2022-12-18T05:11:45.135Z,62.09
2022-12-18T05:12:45.082Z,61.66
2022-12-18T05:13:45.050Z,63.56
2022-12-18T05:14:45.827Z,53.02
2022-12-18T05:15:45.063Z,58.17
2022-12-18T05:16:45.018Z,51.57
2022-12-18T05:17:45.026Z,56.58
2022-12-18T05:18:45.006Z,59.56
2022-12-18T05:19:45.011Z,64.53
2022-12-18T05:20:44.994Z,61.98
2022-12-18T05:21:44.976Z,67.20
2022-12-18T05:22:44.991Z,60.93
2022-12-18T05:23:44.975Z,65.65
2022-12-18T05:24:45.052Z,61.80
2022-12-18T05:25:44.930Z,52.85
2022-12-18T05:26:44.932Z,61.74
2022-12-18T05:27:44.946Z,55.43
2022-12-18T05:28:44.898Z,58.25
2022-12-18T05:29:44.896Z,60.46
2022-12-18T05:30:44.939Z,62.39
2022-12-18T05:31:45.906Z,64.14
2022-12-18T05:32:44.868Z,59.49
2022-12-18T05:33:44.924Z,58.94
2022-12-18T05:34:44.838Z,63.00
2022-12-18T05:35:44.868Z,67.18
2022-12-18T05:36:44.835Z,67.10
2022-12-18T05:37:44.832Z,63.34
2022-12-18T05:38:44.819Z,64.23
2022-12-18T05:39:44.839Z,55.41
2022-12-18T05:40:44.919Z,64.86
2022-12-18T05:41:44.779Z,64.30
2022-12-18T05:42:44.807Z,56.98
2022-12-18T05:43:44.798Z,64.32
2022-12-18T05:44:44.744Z,62.93
2022-12-18T05:45:44.788Z,55.50
2022-12-18T05:46:44.793Z,55.68
2022-12-18T05:47:45.576Z,62.75
2022-12-18T05:48:44.926Z,64.59
2022-12-18T05:49:44.704Z,63.77
2022-12-18T05:50:44.735Z,56.61
2022-12-18T05:51:44.683Z,60.99
2022-12-18T05:52:44.671Z,64.54
2022-12-18T05:53:44.694Z,62.18
2022-12-18T05:54:44.663Z,66.23
2022-12-18T05:55:44.640Z,61.56
2022-12-18T05:56:48.587Z,61.02
2022-12-18T05:57:45.616Z,48.59
2022-12-18T05:58:45.125Z,52.62
2022-12-18T05:59:44.651Z,64.43
2022-12-18T06:00:44.591Z,60.00
2022-12-18T06:01:44.688Z,62.85
2022-12-18T06:02:44.724Z,60.89
2022-12-18T06:03:45.083Z,54.57
2022-12-18T06:04:44.563Z,66.28
2022-12-18T06:05:44.570Z,60.08
2022-12-18T06:06:44.540Z,58.17
2022-12-18T06:07:45.568Z,47.56
2022-12-18T06:08:46.684Z,64.79
2022-12-18T06:09:45.608Z,53.83
2022-12-18T06:10:44.511Z,62.78
2022-12-18T06:11:44.540Z,54.00
2022-12-18T06:12:44.602Z,55.59
2022-12-18T06:13:44.519Z,50.41
2022-12-18T06:14:44.492Z,56.24
2022-12-18T06:15:44.452Z,62.37
2022-12-18T06:16:44.503Z,61.43
2022-12-18T06:17:44.444Z,53.19
2022-12-18T06:18:44.444Z,56.35
2022-12-18T06:19:44.454Z,60.05
2022-12-18T06:20:44.452Z,62.91
2022-12-18T06:21:44.398Z,66.31
2022-12-18T06:22:44.408Z,64.33
2022-12-18T06:23:44.390Z,59.71
2022-12-18T06:24:44.344Z,58.06
2022-12-18T06:25:45.434Z,64.93
2022-12-18T06:26:45.301Z,64.02
2022-12-18T06:27:44.401Z,63.63
2022-12-18T06:28:44.428Z,54.00
2022-12-18T06:29:44.375Z,56.59
2022-12-18T06:30:44.334Z,50.24
2022-12-18T06:31:44.390Z,56.30
2022-12-18T06:32:44.285Z,61.60
2022-12-18T06:33:44.314Z,62.89
2022-12-18T06:34:44.301Z,64.04
2022-12-18T06:35:44.345Z,59.28
2022-12-18T06:36:44.285Z,59.62
2022-12-18T06:37:44.322Z,61.20
2022-12-18T06:38:44.280Z,64.31
2022-12-18T06:39:44.238Z,64.30
2022-12-18T06:40:44.229Z,58.14
2022-12-18T06:41:44.205Z,53.92
2022-12-18T06:42:44.209Z,53.22
2022-12-18T06:43:44.172Z,55.29
2022-12-18T06:44:44.279Z,62.61
2022-12-18T06:45:44.221Z,57.39
2022-12-18T06:46:44.164Z,62.25
2022-12-18T06:47:44.189Z,63.01
2022-12-18T06:48:44.144Z,62.43
2022-12-18T06:49:44.112Z,63.74
2022-12-18T06:50:44.127Z,61.69
2022-12-18T06:51:44.108Z,59.34
2022-12-18T06:52:44.078Z,58.04
2022-12-18T06:53:44.098Z,62.47
2022-12-18T06:54:44.062Z,55.63
2022-12-18T06:55:44.050Z,66.72
2022-12-18T06:56:44.089Z,68.96
2022-12-18T06:57:44.075Z,64.66
2022-12-18T06:58:44.063Z,67.41
2022-12-18T06:59:44.111Z,63.44
2022-12-18T07:00:44.198Z,65.41
2022-12-18T07:01:44.213Z,63.44
2022-12-18T07:02:44.087Z,65.24
2022-12-18T07:03:44.581Z,60.66
2022-12-18T07:04:44.019Z,61.89
2022-12-18T07:05:43.947Z,65.33
2022-12-18T07:06:43.949Z,57.59
2022-12-18T07:07:43.947Z,58.97
2022-12-18T07:08:43.943Z,67.15
2022-12-18T07:09:43.919Z,62.82
2022-12-18T07:10:47.478Z,68.01
2022-12-18T07:11:44.887Z,65.21
2022-12-18T07:12:43.910Z,56.97
2022-12-18T07:13:44.022Z,62.89
2022-12-18T07:14:43.912Z,65.80
2022-12-18T07:15:43.871Z,61.57
2022-12-18T07:16:43.985Z,67.37
2022-12-18T07:17:43.882Z,66.30
2022-12-18T07:18:43.816Z,63.38
2022-12-18T07:19:44.829Z,62.38
2022-12-18T07:20:44.563Z,68.45
2022-12-18T07:21:43.820Z,63.77
2022-12-18T07:22:43.779Z,66.37
2022-12-18T07:23:43.855Z,55.21
2022-12-18T07:24:43.862Z,58.86
2022-12-18T07:25:43.763Z,64.57
2022-12-18T07:26:43.952Z,65.91
2022-12-18T07:27:43.779Z,64.93
2022-12-18T07:28:43.764Z,70.96
2022-12-18T07:29:43.748Z,68.43
2022-12-18T07:30:43.751Z,63.97
2022-12-18T07:31:43.796Z,55.92
2022-12-18T07:32:43.796Z,64.26
2022-12-18T07:33:43.714Z,67.22
2022-12-18T07:34:43.686Z,64.48
2022-12-18T07:35:43.701Z,64.98
2022-12-18T07:36:43.676Z,61.54
2022-12-18T07:37:43.680Z,64.02
2022-12-18T07:38:43.637Z,64.66
2022-12-18T07:39:44.536Z,65.62
2022-12-18T07:40:43.631Z,66.01
2022-12-18T07:41:46.715Z,65.64
2022-12-18T07:42:44.666Z,65.46
2022-12-18T07:43:44.119Z,66.80
2022-12-18T07:44:44.192Z,63.31
2022-12-18T07:45:43.633Z,67.71
2022-12-18T07:46:43.629Z,65.01
2022-12-18T07:47:43.542Z,59.75
2022-12-18T07:48:44.234Z,60.31
2022-12-18T07:49:44.532Z,66.11
2022-12-18T07:50:43.529Z,59.25
2022-12-18T07:51:43.601Z,65.96
2022-12-18T07:52:44.137Z,58.09
2022-12-18T07:53:43.694Z,66.94
2022-12-18T07:54:43.493Z,63.80
2022-12-18T07:56:17.711Z,59.53
2022-12-18T07:56:45.531Z,60.59
2022-12-18T07:57:52.667Z,65.56
2022-12-18T07:58:45.462Z,65.12
2022-12-18T07:59:43.445Z,59.98
2022-12-18T08:00:43.438Z,68.09
2022-12-18T08:01:43.667Z,63.13
2022-12-18T08:02:43.501Z,64.63
2022-12-18T08:03:43.473Z,65.75
2022-12-18T08:04:43.481Z,58.01
2022-12-18T08:05:43.392Z,62.94
2022-12-18T08:06:47.610Z,63.79
2022-12-18T08:07:44.381Z,64.69
2022-12-18T08:08:44.095Z,65.36
2022-12-18T08:09:43.363Z,63.04
2022-12-18T08:10:43.326Z,67.30
2022-12-18T08:11:43.349Z,64.68
2022-12-18T08:12:43.331Z,66.13
2022-12-18T08:13:43.493Z,65.87
2022-12-18T08:14:43.282Z,69.13
2022-12-18T08:15:43.283Z,64.00
2022-12-18T08:16:43.410Z,66.54
2022-12-18T08:17:44.263Z,64.58
2022-12-18T08:18:43.285Z,61.75
2022-12-18T08:19:43.266Z,67.64
2022-12-18T08:20:43.345Z,62.24
2022-12-18T08:21:43.367Z,67.84
2022-12-18T08:22:43.241Z,65.66
2022-12-18T08:23:43.747Z,68.89
2022-12-18T08:24:43.224Z,65.12
2022-12-18T08:25:43.168Z,70.61
2022-12-18T08:26:51.819Z,65.02
2022-12-18T08:27:44.217Z,69.24
2022-12-18T08:28:43.231Z,67.17
2022-12-18T08:29:43.160Z,69.47
2022-12-18T08:30:43.364Z,66.17
2022-12-18T08:31:43.169Z,64.20
2022-12-18T08:32:44.081Z,67.25
2022-12-18T08:33:43.599Z,67.58
2022-12-18T08:34:43.129Z,65.86
2022-12-18T08:35:46.019Z,69.89
2022-12-18T08:36:44.183Z,66.07
2022-12-18T08:37:43.088Z,66.96
2022-12-18T08:38:43.327Z,67.00
2022-12-18T08:39:43.330Z,68.76
2022-12-18T08:40:43.096Z,68.63
2022-12-18T08:41:43.136Z,68.65
2022-12-18T08:42:43.021Z,67.26
2022-12-18T08:43:43.328Z,70.80
2022-12-18T08:44:43.049Z,69.57
2022-12-18T08:45:43.051Z,67.91
2022-12-18T08:46:43.101Z,68.37
2022-12-18T08:47:43.009Z,69.12
2022-12-18T08:48:43.004Z,69.48
2022-12-18T08:49:43.002Z,69.60
2022-12-18T08:50:43.123Z,70.32
2022-12-18T08:51:42.995Z,68.85
2022-12-18T08:52:43.018Z,67.28
2022-12-18T08:53:43.264Z,69.19
2022-12-18T08:54:42.921Z,68.14
2022-12-18T08:55:48.556Z,72.09
2022-12-18T08:56:44.977Z,67.48
2022-12-18T08:57:42.910Z,71.45
2022-12-18T08:58:43.010Z,66.48
2022-12-18T08:59:42.879Z,69.25
2022-12-18T09:00:43.663Z,68.25
2022-12-18T09:01:42.991Z,69.61
2022-12-18T09:02:43.044Z,66.02
2022-12-18T09:03:44.345Z,68.42
2022-12-18T09:04:42.836Z,69.28
2022-12-18T09:05:42.815Z,67.92
2022-12-18T09:06:42.942Z,67.46
2022-12-18T09:07:42.806Z,65.05
2022-12-18T09:08:48.763Z,67.73
2022-12-18T09:09:43.938Z,61.07
2022-12-18T09:10:43.551Z,68.79
2022-12-18T09:11:43.772Z,68.95
2022-12-18T09:12:43.566Z,67.91
2022-12-18T09:13:43.054Z,68.72
2022-12-18T09:14:42.760Z,68.62
2022-12-18T09:15:42.768Z,68.13
2022-12-18T09:16:42.771Z,68.50
2022-12-18T09:17:43.707Z,69.96
2022-12-18T09:18:43.148Z,70.91
2022-12-18T09:19:42.684Z,67.54
2022-12-18T09:20:42.716Z,70.11
2022-12-18T09:21:47.793Z,69.77
2022-12-18T09:22:44.879Z,71.86
2022-12-18T09:23:42.648Z,69.32
2022-12-18T09:24:42.623Z,68.92
2022-12-18T09:25:42.725Z,69.07
2022-12-18T09:26:43.521Z,69.99
2022-12-18T09:27:42.593Z,68.71
2022-12-18T09:28:42.888Z,67.39
2022-12-18T09:29:42.608Z,70.25
2022-12-18T09:30:43.610Z,68.63
2022-12-18T09:31:42.579Z,71.63
2022-12-18T09:32:42.553Z,66.10
2022-12-18T09:33:42.543Z,65.26
2022-12-18T09:34:42.522Z,67.88
2022-12-18T09:35:42.492Z,67.50
2022-12-18T09:36:42.543Z,68.14
2022-12-18T09:37:42.519Z,67.88
2022-12-18T09:38:42.850Z,65.56
2022-12-18T09:39:42.466Z,67.59
2022-12-18T09:40:42.461Z,68.65
2022-12-18T09:41:43.143Z,67.97
2022-12-18T09:42:42.549Z,70.80
2022-12-18T09:43:42.429Z,70.09
2022-12-18T09:44:45.363Z,69.39
2022-12-18T09:45:43.421Z,69.19
2022-12-18T09:46:43.304Z,71.21
2022-12-18T09:47:42.372Z,67.35
2022-12-18T09:48:42.927Z,66.84
2022-12-18T09:49:43.202Z,69.12
2022-12-18T09:50:42.401Z,69.15
2022-12-18T09:51:42.357Z,71.42
2022-12-18T09:52:42.349Z,70.67
2022-12-18T09:53:42.401Z,69.69
2022-12-18T09:54:42.456Z,65.77
2022-12-18T09:55:42.530Z,69.99
2022-12-18T09:56:42.367Z,66.24
2022-12-18T09:57:42.384Z,71.22
2022-12-18T09:58:42.770Z,68.82
2022-12-18T09:59:43.205Z,70.37
2022-12-18T10:00:42.279Z,66.94
2022-12-18T10:01:44.557Z,68.04
2022-12-18T10:02:43.381Z,70.94
2022-12-18T10:03:42.346Z,67.26
2022-12-18T10:04:42.303Z,71.00
2022-12-18T10:05:42.288Z,64.46
2022-12-18T10:06:42.213Z,67.34
2022-12-18T10:07:42.243Z,67.76
2022-12-18T10:08:42.776Z,68.80
2022-12-18T10:09:42.216Z,69.55
2022-12-18T10:10:42.178Z,69.04
2022-12-18T10:11:42.102Z,71.04
2022-12-18T10:12:42.149Z,70.53
2022-12-18T10:13:42.220Z,70.00
2022-12-18T10:14:42.155Z,65.47
2022-12-18T10:15:43.205Z,69.00
2022-12-18T10:16:42.153Z,70.05
2022-12-18T10:17:42.131Z,69.63
2022-12-18T10:18:42.436Z,71.72
2022-12-18T10:19:42.008Z,71.10
2022-12-18T10:20:51.192Z,70.07
2022-12-18T10:21:42.082Z,70.66
2022-12-18T10:22:42.083Z,67.16
2022-12-18T10:23:46.577Z,70.65
2022-12-18T10:24:43.996Z,72.12
2022-12-18T10:27:35.151Z,72.17
2022-12-18T10:27:36.628Z,0.00
2022-12-18T10:28:36.779Z,71.61
2022-12-18T10:29:36.715Z,72.87
2022-12-18T10:30:36.680Z,72.32
2022-12-18T10:31:36.719Z,70.98
2022-12-18T10:32:36.771Z,71.39
2022-12-18T10:33:36.761Z,70.62
2022-12-18T10:34:36.586Z,71.95
2022-12-18T10:35:36.652Z,70.95
2022-12-18T10:36:36.700Z,70.82
2022-12-18T10:37:36.599Z,71.13
2022-12-18T10:38:36.670Z,70.07
2022-12-18T10:39:36.602Z,71.04
2022-12-18T10:40:36.737Z,71.43
2022-12-18T10:41:36.577Z,70.78
2022-12-18T10:42:36.523Z,70.45
2022-12-18T10:43:36.534Z,70.43
2022-12-18T10:44:36.617Z,71.73
2022-12-18T10:45:36.553Z,70.91
2022-12-18T10:46:36.526Z,72.41
2022-12-18T10:47:36.525Z,72.29
2022-12-18T10:48:36.649Z,71.53
2022-12-18T10:49:36.566Z,72.08
2022-12-18T10:51:09.146Z,72.00
2022-12-18T10:51:38.516Z,70.35
2022-12-18T10:52:39.612Z,72.52
2022-12-18T10:53:37.441Z,72.20
2022-12-18T10:54:36.356Z,69.89
2022-12-18T10:55:36.317Z,73.29
2022-12-18T10:56:36.338Z,68.29
2022-12-18T10:57:36.320Z,68.73
2022-12-18T10:58:36.303Z,71.85
2022-12-18T10:59:36.348Z,69.67
2022-12-18T11:00:36.273Z,67.75
2022-12-18T11:01:36.584Z,67.88
2022-12-18T11:02:36.450Z,70.54
2022-12-18T11:03:36.335Z,69.97
2022-12-18T11:04:36.259Z,70.66
2022-12-18T11:05:36.262Z,70.79
2022-12-18T11:06:36.226Z,71.53
2022-12-18T11:07:36.385Z,71.74
2022-12-18T11:08:36.224Z,70.95
2022-12-18T11:09:36.180Z,67.36
2022-12-18T11:10:36.215Z,70.22
2022-12-18T11:11:36.154Z,71.43
2022-12-18T11:12:36.173Z,73.32
2022-12-18T11:13:36.193Z,70.57
2022-12-18T11:14:36.162Z,71.11
2022-12-18T11:15:36.154Z,72.65
2022-12-18T11:16:36.149Z,71.17
2022-12-18T11:17:36.193Z,71.66
2022-12-18T11:18:36.155Z,72.19
2022-12-18T11:19:36.070Z,72.37
2022-12-18T11:20:36.056Z,72.17
2022-12-18T11:21:36.083Z,71.99
2022-12-18T11:22:36.065Z,71.07
2022-12-18T11:23:36.095Z,68.17
2022-12-18T11:24:36.035Z,71.92
2022-12-18T11:25:36.539Z,72.08
2022-12-18T11:26:35.989Z,72.02
2022-12-18T11:27:35.989Z,71.68
2022-12-18T11:28:36.238Z,73.14
2022-12-18T11:29:36.016Z,71.97
2022-12-18T11:30:35.917Z,72.95
2022-12-18T11:31:36.284Z,71.66
2022-12-18T11:32:35.917Z,73.47
2022-12-18T11:33:35.993Z,72.10
2022-12-18T11:34:36.035Z,70.52
2022-12-18T11:35:36.079Z,73.00
2022-12-18T11:36:35.894Z,71.03
2022-12-18T11:37:35.919Z,70.37
2022-12-18T11:38:35.899Z,73.03
2022-12-18T11:39:35.934Z,71.71
2022-12-18T11:40:40.867Z,72.42
2022-12-18T11:41:38.523Z,72.71
2022-12-18T11:42:36.155Z,69.21
2022-12-18T11:43:35.853Z,71.05
2022-12-18T11:44:36.019Z,72.44
2022-12-18T11:45:35.803Z,73.13
2022-12-18T11:46:35.844Z,70.09
2022-12-18T11:47:35.759Z,71.10
2022-12-18T11:48:36.524Z,71.90
2022-12-18T11:49:36.958Z,73.41
2022-12-18T11:50:35.712Z,72.10
2022-12-18T11:51:35.731Z,72.42
2022-12-18T11:52:35.792Z,73.00
2022-12-18T11:53:35.719Z,70.99
2022-12-18T11:54:35.664Z,69.48
2022-12-18T11:55:35.715Z,73.45
2022-12-18T11:56:35.779Z,71.25
2022-12-18T11:57:36.615Z,72.83
2022-12-18T11:58:35.679Z,73.32
2022-12-18T11:59:35.665Z,71.01
2022-12-18T12:00:35.693Z,72.64
2022-12-18T12:01:41.948Z,71.32
2022-12-18T12:02:37.855Z,72.59
2022-12-18T12:03:36.645Z,73.28
2022-12-18T12:04:35.945Z,70.11
2022-12-18T12:05:35.640Z,71.13
2022-12-18T12:06:35.619Z,69.98
2022-12-18T12:07:35.609Z,71.28
2022-12-18T12:08:35.644Z,70.86
2022-12-18T12:09:37.096Z,68.76
2022-12-18T12:10:35.544Z,69.72
2022-12-18T12:11:35.537Z,70.77
2022-12-18T12:12:35.519Z,68.55
2022-12-18T12:13:35.595Z,71.19
2022-12-18T12:14:35.564Z,72.10
2022-12-18T12:15:36.184Z,73.36
2022-12-18T12:16:36.594Z,72.21
2022-12-18T12:17:36.509Z,71.01
2022-12-18T12:18:35.608Z,72.78
2022-12-18T12:19:35.421Z,71.87
2022-12-18T12:20:36.204Z,74.01
2022-12-18T12:21:37.183Z,70.47
2022-12-18T12:22:36.545Z,74.06
2022-12-18T12:23:35.400Z,73.57
2022-12-18T12:24:35.360Z,73.55
2022-12-18T12:26:07.855Z,73.06
2022-12-18T12:26:35.329Z,73.68
2022-12-18T12:27:35.977Z,71.98
2022-12-18T12:28:36.177Z,72.16
2022-12-18T12:29:35.369Z,74.14
2022-12-18T12:30:36.273Z,72.26
2022-12-18T12:31:35.532Z,71.97
2022-12-18T12:32:35.258Z,73.28
2022-12-18T12:33:37.380Z,73.08
2022-12-18T12:34:35.273Z,72.71
2022-12-18T12:35:35.265Z,73.60
2022-12-18T12:36:35.242Z,72.83
2022-12-18T12:37:41.284Z,72.64
2022-12-18T12:38:36.426Z,72.89
2022-12-18T12:39:35.266Z,74.05
2022-12-18T12:40:53.457Z,73.59
2022-12-18T12:41:37.203Z,74.67
2022-12-18T12:42:35.195Z,74.64
2022-12-18T12:43:35.241Z,74.44
2022-12-18T12:44:35.200Z,74.06
2022-12-18T12:45:35.258Z,75.47
2022-12-18T12:46:35.130Z,72.66
2022-12-18T12:47:35.154Z,74.67
2022-12-18T12:48:35.194Z,74.02
2022-12-18T12:49:39.021Z,74.70
2022-12-18T12:50:37.182Z,75.53
2022-12-18T12:51:35.102Z,75.06
2022-12-18T12:52:35.170Z,74.80
2022-12-18T12:53:35.092Z,71.77